sensor_id;sensor_type;location;lat;lon;timestamp;pressure;altitude;pressure_sealevel;temperature;humidity
25638;BME280;13496;51.040;13.680;2024-03-02T00:02:56;98750.84;;;19.24;49.32
25638;BME280;13496;51.040;13.680;2024-03-02T00:07:58;98746.19;;;19.26;49.21
25638;BME280;13496;51.040;13.680;2024-03-02T00:13:01;98735.91;;;19.25;49.07
25638;BME280;13496;51.040;13.680;2024-03-02T00:18:03;98726.97;;;19.26;49.24
25638;BME280;13496;51.040;13.680;2024-03-02T00:23:07;98725.38;;;19.25;49.09
25638;BME280;13496;51.040;13.680;2024-03-02T00:33:52;98743.97;;;19.23;49.45
25638;BME280;13496;51.040;13.680;2024-03-02T00:38:54;98735.06;;;19.24;49.22
25638;BME280;13496;51.040;13.680;2024-03-02T00:44:00;98734.25;;;19.24;49.19
25638;BME280;13496;51.040;13.680;2024-03-02T00:49:04;98744.78;;;19.24;49.21
25638;BME280;13496;51.040;13.680;2024-03-02T00:54:07;98738.72;;;19.23;49.08
25638;BME280;13496;51.040;13.680;2024-03-02T00:59:10;98747.41;;;19.24;48.94
25638;BME280;13496;51.040;13.680;2024-03-02T01:04:12;98752.91;;;19.22;49.11
25638;BME280;13496;51.040;13.680;2024-03-02T01:09:15;98749.91;;;19.19;49.35
25638;BME280;13496;51.040;13.680;2024-03-02T01:14:19;98733.69;;;19.22;49.14
25638;BME280;13496;51.040;13.680;2024-03-02T01:19:21;98731.06;;;19.22;49.05
25638;BME280;13496;51.040;13.680;2024-03-02T01:24:22;98739.16;;;19.20;49.13
25638;BME280;13496;51.040;13.680;2024-03-02T01:29:24;98732.28;;;19.19;49.05
25638;BME280;13496;51.040;13.680;2024-03-02T01:34:26;98730.31;;;19.15;49.08
25638;BME280;13496;51.040;13.680;2024-03-02T01:39:28;98735.34;;;19.16;49.36
25638;BME280;13496;51.040;13.680;2024-03-02T01:44:30;98733.53;;;19.17;49.36
25638;BME280;13496;51.040;13.680;2024-03-02T01:49:32;98730.31;;;19.15;49.04
25638;BME280;13496;51.040;13.680;2024-03-02T01:54:35;98729.28;;;19.16;49.02
25638;BME280;13496;51.040;13.680;2024-03-02T01:59:37;98725.06;;;19.15;49.36
25638;BME280;13496;51.040;13.680;2024-03-02T02:04:39;98729.28;;;19.16;49.18
25638;BME280;13496;51.040;13.680;2024-03-02T02:09:41;98719.81;;;19.15;49.19
25638;BME280;13496;51.040;13.680;2024-03-02T02:14:50;98717.38;;;19.13;49.06
25638;BME280;13496;51.040;13.680;2024-03-02T02:19:51;98708.47;;;19.14;48.98
25638;BME280;13496;51.040;13.680;2024-03-02T02:24:53;98713.75;;;19.14;49.36
25638;BME280;13496;51.040;13.680;2024-03-02T02:29:56;98713.16;;;19.12;48.98
25638;BME280;13496;51.040;13.680;2024-03-02T02:34:57;98719.44;;;19.11;49.15
25638;BME280;13496;51.040;13.680;2024-03-02T02:40:01;98716.19;;;19.09;49.32
25638;BME280;13496;51.040;13.680;2024-03-02T02:45:02;98723.28;;;19.08;49.25
25638;BME280;13496;51.040;13.680;2024-03-02T02:50:07;98720.00;;;19.13;49.16
25638;BME280;13496;51.040;13.680;2024-03-02T02:55:11;98704.69;;;19.10;49.40
25638;BME280;13496;51.040;13.680;2024-03-02T03:00:14;98707.31;;;19.10;49.00
25638;BME280;13496;51.040;13.680;2024-03-02T03:05:16;98719.44;;;19.11;49.02
25638;BME280;13496;51.040;13.680;2024-03-02T03:10:18;98709.94;;;19.10;49.14
25638;BME280;13496;51.040;13.680;2024-03-02T03:15:22;98699.44;;;19.10;49.26
25638;BME280;13496;51.040;13.680;2024-03-02T03:20:24;98705.91;;;19.07;49.25
25638;BME280;13496;51.040;13.680;2024-03-02T03:25:26;98710.13;;;19.08;49.12
25638;BME280;13496;51.040;13.680;2024-03-02T03:30:28;98710.94;;;19.09;49.16
25638;BME280;13496;51.040;13.680;2024-03-02T03:35:30;98702.06;;;19.10;49.15
25638;BME280;13496;51.040;13.680;2024-03-02T03:40:31;98707.31;;;19.10;49.11
25638;BME280;13496;51.040;13.680;2024-03-02T03:45:33;98701.22;;;19.09;49.30
25638;BME280;13496;51.040;13.680;2024-03-02T03:50:35;98692.78;;;19.07;49.17
25638;BME280;13496;51.040;13.680;2024-03-02T03:55:37;98695.41;;;19.07;49.17
25638;BME280;13496;51.040;13.680;2024-03-02T04:00:39;98697.22;;;19.07;49.29
25638;BME280;13496;51.040;13.680;2024-03-02T04:05:41;98699.84;;;19.07;48.89
25638;BME280;13496;51.040;13.680;2024-03-02T04:10:43;98699.84;;;19.07;49.01
25638;BME280;13496;51.040;13.680;2024-03-02T04:15:45;98714.22;;;19.04;49.22
25638;BME280;13496;51.040;13.680;2024-03-02T04:20:47;98718.47;;;19.05;48.95
25638;BME280;13496;51.040;13.680;2024-03-02T04:25:48;98713.00;;;19.07;49.34
25638;BME280;13496;51.040;13.680;2024-03-02T04:30:50;98711.16;;;19.07;49.03
25638;BME280;13496;51.040;13.680;2024-03-02T04:35:52;98715.03;;;19.05;48.97
25638;BME280;13496;51.040;13.680;2024-03-02T04:40:54;98722.13;;;19.04;49.42
25638;BME280;13496;51.040;13.680;2024-03-02T04:45:56;98733.84;;;19.02;49.27
25638;BME280;13496;51.040;13.680;2024-03-02T04:50:57;98732.06;;;19.02;49.18
25638;BME280;13496;51.040;13.680;2024-03-02T04:55:59;98739.94;;;19.02;49.38
25638;BME280;13496;51.040;13.680;2024-03-02T05:01:19;98752.25;;;19.02;49.33
25638;BME280;13496;51.040;13.680;2024-03-02T05:06:21;98759.16;;;19.03;49.32
25638;BME280;13496;51.040;13.680;2024-03-02T05:11:24;98757.31;;;19.03;49.41
25638;BME280;13496;51.040;13.680;2024-03-02T05:16:41;98771.69;;;19.01;49.31
25638;BME280;13496;51.040;13.680;2024-03-02T05:21:45;98777.56;;;19.03;49.31
25638;BME280;13496;51.040;13.680;2024-03-02T05:26:47;98779.38;;;19.02;49.00
25638;BME280;13496;51.040;13.680;2024-03-02T05:31:49;98785.63;;;19.01;49.31
25638;BME280;13496;51.040;13.680;2024-03-02T05:36:51;98783.81;;;19.02;49.39
25638;BME280;13496;51.040;13.680;2024-03-02T05:41:53;98789.91;;;19.02;49.25
25638;BME280;13496;51.040;13.680;2024-03-02T05:46:55;98795.34;;;19.01;49.39
25638;BME280;13496;51.040;13.680;2024-03-02T05:51:57;98804.25;;;19.00;49.57
25638;BME280;13496;51.040;13.680;2024-03-02T05:56:59;98820.84;;;19.00;49.29
25638;BME280;13496;51.040;13.680;2024-03-02T06:02:18;98820.03;;;19.00;49.21
25638;BME280;13496;51.040;13.680;2024-03-02T06:07:20;98826.31;;;18.99;49.36
25638;BME280;13496;51.040;13.680;2024-03-02T06:12:21;98827.13;;;18.99;49.27
25638;BME280;13496;51.040;13.680;2024-03-02T06:17:23;98833.97;;;19.00;49.13
25638;BME280;13496;51.040;13.680;2024-03-02T06:22:25;98843.69;;;19.00;49.44
25638;BME280;13496;51.040;13.680;2024-03-02T06:27:27;98836.84;;;18.99;49.56
25638;BME280;13496;51.040;13.680;2024-03-02T06:32:29;98834.22;;;18.99;49.50
25638;BME280;13496;51.040;13.680;2024-03-02T06:37:31;98850.78;;;18.99;49.38
25638;BME280;13496;51.040;13.680;2024-03-02T06:42:33;98841.88;;;19.00;49.34
25638;BME280;13496;51.040;13.680;2024-03-02T06:47:35;98859.47;;;19.00;49.34
25638;BME280;13496;51.040;13.680;2024-03-02T06:52:37;98864.72;;;19.00;49.24
25638;BME280;13496;51.040;13.680;2024-03-02T06:57:39;98868.38;;;18.99;49.23
25638;BME280;13496;51.040;13.680;2024-03-02T07:02:41;98876.03;;;19.00;49.63
25638;BME280;13496;51.040;13.680;2024-03-02T07:07:43;98878.28;;;18.97;49.61
25638;BME280;13496;51.040;13.680;2024-03-02T07:12:45;98885.16;;;18.98;49.37
25638;BME280;13496;51.040;13.680;2024-03-02T07:17:46;98888.81;;;18.97;49.27
25638;BME280;13496;51.040;13.680;2024-03-02T07:22:49;98886.78;;;18.99;49.49
25638;BME280;13496;51.040;13.680;2024-03-02T07:27:51;98890.22;;;18.99;49.32
25638;BME280;13496;51.040;13.680;2024-03-02T07:32:53;98893.63;;;19.00;49.38
25638;BME280;13496;51.040;13.680;2024-03-02T07:37:55;98899.94;;;18.99;49.38
25638;BME280;13496;51.040;13.680;2024-03-02T07:42:57;98899.69;;;19.00;49.52
25638;BME280;13496;51.040;13.680;2024-03-02T07:47:59;98905.97;;;18.99;49.48
25638;BME280;13496;51.040;13.680;2024-03-02T07:53:01;98916.50;;;18.99;49.50
25638;BME280;13496;51.040;13.680;2024-03-02T07:58:03;98913.06;;;18.99;49.30
25638;BME280;13496;51.040;13.680;2024-03-02T08:03:06;98924.38;;;18.99;49.13
25638;BME280;13496;51.040;13.680;2024-03-02T08:08:08;98922.56;;;19.00;49.28
25638;BME280;13496;51.040;13.680;2024-03-02T08:13:09;98924.16;;;19.01;49.57
25638;BME280;13496;51.040;13.680;2024-03-02T08:18:11;98935.47;;;19.01;49.40
25638;BME280;13496;51.040;13.680;2024-03-02T08:23:13;98941.34;;;19.03;49.09
25638;BME280;13496;51.040;13.680;2024-03-02T08:28:16;98938.09;;;19.01;49.46
25638;BME280;13496;51.040;13.680;2024-03-02T08:33:19;98948.22;;;19.04;49.38
25638;BME280;13496;51.040;13.680;2024-03-02T08:38:20;98950.03;;;19.04;49.50
25638;BME280;13496;51.040;13.680;2024-03-02T08:43:23;98966.63;;;19.04;49.44
25638;BME280;13496;51.040;13.680;2024-03-02T08:48:25;98960.56;;;19.04;49.41
25638;BME280;13496;51.040;13.680;2024-03-02T08:53:27;98961.34;;;19.04;49.43
25638;BME280;13496;51.040;13.680;2024-03-02T08:58:29;98956.72;;;19.06;49.41
25638;BME280;13496;51.040;13.680;2024-03-02T09:03:31;98945.16;;;19.07;49.17
25638;BME280;13496;51.040;13.680;2024-03-02T09:08:34;98939.50;;;19.10;49.11
25638;BME280;13496;51.040;13.680;2024-03-02T09:13:38;98943.72;;;19.12;49.27
25638;BME280;13496;51.040;13.680;2024-03-02T09:18:40;98951.38;;;19.13;49.19
25638;BME280;13496;51.040;13.680;2024-03-02T09:23:41;98954.63;;;19.15;49.27
25638;BME280;13496;51.040;13.680;2024-03-02T09:28:45;98954.22;;;19.18;49.08
25638;BME280;13496;51.040;13.680;2024-03-02T09:33:47;98966.56;;;19.18;49.07
25638;BME280;13496;51.040;13.680;2024-03-02T09:38:49;98969.38;;;19.16;49.19
25638;BME280;13496;51.040;13.680;2024-03-02T09:43:51;98974.44;;;19.18;49.55
25638;BME280;13496;51.040;13.680;2024-03-02T09:48:53;98969.97;;;19.18;49.40
25638;BME280;13496;51.040;13.680;2024-03-02T09:53:55;98975.44;;;19.17;49.48
25638;BME280;13496;51.040;13.680;2024-03-02T09:58:57;98969.97;;;19.18;49.17
25638;BME280;13496;51.040;13.680;2024-03-02T10:04:00;98964.13;;;19.16;49.63
25638;BME280;13496;51.040;13.680;2024-03-02T10:09:02;98963.31;;;19.16;49.24
25638;BME280;13496;51.040;13.680;2024-03-02T10:14:12;98959.66;;;19.17;49.51
25638;BME280;13496;51.040;13.680;2024-03-02T10:19:22;98961.28;;;19.18;49.42
25638;BME280;13496;51.040;13.680;2024-03-02T10:24:25;98957.88;;;19.17;49.29
25638;BME280;13496;51.040;13.680;2024-03-02T10:29:29;98946.91;;;19.20;49.67
25638;BME280;13496;51.040;13.680;2024-03-02T10:34:31;98944.28;;;19.20;49.53
25638;BME280;13496;51.040;13.680;2024-03-02T10:39:36;98942.25;;;19.22;49.54
25638;BME280;13496;51.040;13.680;2024-03-02T10:44:38;98932.09;;;19.26;49.34
25638;BME280;13496;51.040;13.680;2024-03-02T10:49:42;98919.53;;;19.28;49.52
25638;BME280;13496;51.040;13.680;2024-03-02T10:54:44;98921.97;;;19.29;49.08
25638;BME280;13496;51.040;13.680;2024-03-02T10:59:56;98918.91;;;19.32;49.28
25638;BME280;13496;51.040;13.680;2024-03-02T11:05:00;98912.63;;;19.33;49.29
25638;BME280;13496;51.040;13.680;2024-03-02T11:10:08;98908.56;;;19.38;49.19
25638;BME280;13496;51.040;13.680;2024-03-02T11:15:10;98897.38;;;19.42;49.39
25638;BME280;13496;51.040;13.680;2024-03-02T11:20:15;98901.66;;;19.43;49.34
25638;BME280;13496;51.040;13.680;2024-03-02T11:25:27;98907.28;;;19.47;49.53
25638;BME280;13496;51.040;13.680;2024-03-02T11:35:44;98905.84;;;19.51;49.71
25638;BME280;13496;51.040;13.680;2024-03-02T11:40:49;98904.38;;;19.55;49.63
25638;BME280;13496;51.040;13.680;2024-03-02T11:45:57;98893.44;;;19.58;49.69
25638;BME280;13496;51.040;13.680;2024-03-02T11:51:00;98886.13;;;19.60;49.71
25638;BME280;13496;51.040;13.680;2024-03-02T11:56:02;98887.72;;;19.61;49.51
25638;BME280;13496;51.040;13.680;2024-03-02T12:01:04;98883.88;;;19.64;49.41
25638;BME280;13496;51.040;13.680;2024-03-02T12:06:06;98887.91;;;19.66;49.65
25638;BME280;13496;51.040;13.680;2024-03-02T12:11:13;98886.91;;;19.67;49.45
25638;BME280;13496;51.040;13.680;2024-03-02T12:16:23;98886.91;;;19.67;49.45
25638;BME280;13496;51.040;13.680;2024-03-02T12:21:25;98881.19;;;19.70;49.26
25638;BME280;13496;51.040;13.680;2024-03-02T12:26:27;98882.22;;;19.69;49.46
25638;BME280;13496;51.040;13.680;2024-03-02T12:31:29;98887.03;;;19.72;49.37
25638;BME280;13496;51.040;13.680;2024-03-02T12:36:38;98878.56;;;19.70;49.49
25638;BME280;13496;51.040;13.680;2024-03-02T12:41:40;98868.63;;;19.72;49.58
25638;BME280;13496;51.040;13.680;2024-03-02T12:46:43;98860.28;;;19.75;49.48
25638;BME280;13496;51.040;13.680;2024-03-02T12:51:45;98864.09;;;19.79;49.50
25638;BME280;13496;51.040;13.680;2024-03-02T12:56:48;98863.38;;;19.91;49.21
25638;BME280;13496;51.040;13.680;2024-03-02T13:01:54;98853.50;;;20.04;48.86
25638;BME280;13496;51.040;13.680;2024-03-02T13:06:58;98851.69;;;20.05;48.92
25638;BME280;13496;51.040;13.680;2024-03-02T13:12:01;98855.03;;;19.94;49.11
25638;BME280;13496;51.040;13.680;2024-03-02T13:17:03;98855.03;;;19.94;49.20
25638;BME280;13496;51.040;13.680;2024-03-02T13:22:07;98858.72;;;19.93;49.36
25638;BME280;13496;51.040;13.680;2024-03-02T13:27:09;98863.53;;;19.96;49.01
25638;BME280;13496;51.040;13.680;2024-03-02T13:32:11;98864.53;;;19.95;49.16
25638;BME280;13496;51.040;13.680;2024-03-02T13:37:13;98861.13;;;19.94;49.19
25638;BME280;13496;51.040;13.680;2024-03-02T13:42:15;98865.00;;;19.92;49.34
25638;BME280;13496;51.040;13.680;2024-03-02T13:47:17;98863.16;;;19.92;49.39
25638;BME280;13496;51.040;13.680;2024-03-02T13:52:19;98860.53;;;19.92;49.17
25638;BME280;13496;51.040;13.680;2024-03-02T13:57:22;98870.84;;;19.94;49.31
25638;BME280;13496;51.040;13.680;2024-03-02T14:02:24;98866.38;;;19.94;49.12
25638;BME280;13496;51.040;13.680;2024-03-02T14:07:27;98859.50;;;19.93;49.50
25638;BME280;13496;51.040;13.680;2024-03-02T14:12:29;98863.16;;;19.92;49.35
25638;BME280;13496;51.040;13.680;2024-03-02T14:17:31;98868.44;;;19.92;49.50
25638;BME280;13496;51.040;13.680;2024-03-02T14:22:35;98871.88;;;19.93;49.19
25638;BME280;13496;51.040;13.680;2024-03-02T14:27:39;98869.25;;;19.93;49.30
25638;BME280;13496;51.040;13.680;2024-03-02T14:32:41;98870.47;;;19.90;49.30
25638;BME280;13496;51.040;13.680;2024-03-02T14:37:43;98874.28;;;19.94;49.48
25638;BME280;13496;51.040;13.680;2024-03-02T14:42:45;98874.72;;;19.91;49.58
25638;BME280;13496;51.040;13.680;2024-03-02T14:47:50;98867.41;;;19.93;49.25
25638;BME280;13496;51.040;13.680;2024-03-02T14:52:53;98866.84;;;19.91;49.59
25638;BME280;13496;51.040;13.680;2024-03-02T14:57:55;98856.66;;;19.95;49.15
25638;BME280;13496;51.040;13.680;2024-03-02T15:02:57;98856.66;;;19.95;49.13
25638;BME280;13496;51.040;13.680;2024-03-02T15:07:59;98846.13;;;19.95;49.41
25638;BME280;13496;51.040;13.680;2024-03-02T15:13:03;98851.38;;;19.95;49.26
25638;BME280;13496;51.040;13.680;2024-03-02T15:18:05;98851.38;;;19.95;49.19
25638;BME280;13496;51.040;13.680;2024-03-02T15:23:07;98841.88;;;19.94;49.09
25638;BME280;13496;51.040;13.680;2024-03-02T15:28:09;98848.19;;;19.93;49.12
25638;BME280;13496;51.040;13.680;2024-03-02T15:33:10;98846.56;;;19.92;49.44
25638;BME280;13496;51.040;13.680;2024-03-02T15:38:12;98849.78;;;19.94;49.48
25638;BME280;13496;51.040;13.680;2024-03-02T15:43:16;98845.78;;;19.91;49.54
25638;BME280;13496;51.040;13.680;2024-03-02T15:48:18;98838.44;;;19.93;49.43
25638;BME280;13496;51.040;13.680;2024-03-02T15:53:20;98844.38;;;19.89;49.52
25638;BME280;13496;51.040;13.680;2024-03-02T15:58:22;98839.13;;;19.89;49.34
25638;BME280;13496;51.040;13.680;2024-03-02T16:03:23;98834.88;;;19.88;49.28
25638;BME280;13496;51.040;13.680;2024-03-02T16:08:25;98834.41;;;19.91;49.04
25638;BME280;13496;51.040;13.680;2024-03-02T16:13:27;98835.69;;;19.88;49.31
25638;BME280;13496;51.040;13.680;2024-03-02T16:18:29;98831.22;;;19.89;49.42
25638;BME280;13496;51.040;13.680;2024-03-02T16:23:31;98832.81;;;19.90;49.20
25638;BME280;13496;51.040;13.680;2024-03-02T16:28:33;98833.63;;;19.90;49.48
25638;BME280;13496;51.040;13.680;2024-03-02T16:33:34;98827.56;;;19.90;49.50
25638;BME280;13496;51.040;13.680;2024-03-02T16:38:37;98831.41;;;19.87;49.23
25638;BME280;13496;51.040;13.680;2024-03-02T16:43:39;98835.44;;;19.90;49.35
25638;BME280;13496;51.040;13.680;2024-03-02T16:48:40;98839.13;;;19.89;49.38
25638;BME280;13496;51.040;13.680;2024-03-02T16:53:48;98837.72;;;19.86;49.74
25638;BME280;13496;51.040;13.680;2024-03-02T16:58:50;98843.34;;;19.90;49.33
25638;BME280;13496;51.040;13.680;2024-03-02T17:03:51;98845.97;;;19.90;49.31
25638;BME280;13496;51.040;13.680;2024-03-02T17:08:53;98850.44;;;19.89;49.36
25638;BME280;13496;51.040;13.680;2024-03-02T17:13:55;98851.69;;;19.87;49.66
25638;BME280;13496;51.040;13.680;2024-03-02T17:18:58;98860.38;;;19.87;49.64
25638;BME280;13496;51.040;13.680;2024-03-02T17:24:00;98853.31;;;19.88;49.69
25638;BME280;13496;51.040;13.680;2024-03-02T17:29:04;98861.41;;;19.86;49.82
25638;BME280;13496;51.040;13.680;2024-03-02T17:34:06;98858.78;;;19.86;49.40
25638;BME280;13496;51.040;13.680;2024-03-02T17:39:07;98863.00;;;19.87;49.50
25638;BME280;13496;51.040;13.680;2024-03-02T17:44:10;98859.81;;;19.85;49.56
25638;BME280;13496;51.040;13.680;2024-03-02T17:49:12;98859.56;;;19.87;49.54
25638;BME280;13496;51.040;13.680;2024-03-02T17:54:14;98852.72;;;19.86;49.85
25638;BME280;13496;51.040;13.680;2024-03-02T17:59:16;98851.91;;;19.85;50.02
25638;BME280;13496;51.040;13.680;2024-03-02T18:04:18;98847.66;;;19.84;49.59
25638;BME280;13496;51.040;13.680;2024-03-02T18:09:21;98843.22;;;19.85;49.85
25638;BME280;13496;51.040;13.680;2024-03-02T18:14:23;98836.53;;;19.82;49.75
25638;BME280;13496;51.040;13.680;2024-03-02T18:19:25;98838.94;;;19.83;49.97
25638;BME280;13496;51.040;13.680;2024-03-02T18:24:27;98841.00;;;19.81;50.01
25638;BME280;13496;51.040;13.680;2024-03-02T18:29:30;98836.31;;;19.83;49.87
25638;BME280;13496;51.040;13.680;2024-03-02T18:34:32;98838.38;;;19.81;50.05
25638;BME280;13496;51.040;13.680;2024-03-02T18:39:34;98826.44;;;19.79;50.06
25638;BME280;13496;51.040;13.680;2024-03-02T18:44:37;98827.03;;;19.81;49.67
25638;BME280;13496;51.040;13.680;2024-03-02T18:49:43;98834.13;;;19.80;49.83
25638;BME280;13496;51.040;13.680;2024-03-02T18:54:47;98823.59;;;19.80;49.87
25638;BME280;13496;51.040;13.680;2024-03-02T18:59:49;98820.97;;;19.80;50.06
25638;BME280;13496;51.040;13.680;2024-03-02T19:04:51;98815.72;;;19.80;50.20
25638;BME280;13496;51.040;13.680;2024-03-02T19:09:53;98821.19;;;19.79;49.80
25638;BME280;13496;51.040;13.680;2024-03-02T19:14:55;98815.13;;;19.78;50.16
25638;BME280;13496;51.040;13.680;2024-03-02T19:19:57;98815.34;;;19.77;50.16
25638;BME280;13496;51.040;13.680;2024-03-02T19:24:59;98816.94;;;19.78;50.13
25638;BME280;13496;51.040;13.680;2024-03-02T19:30:03;98814.53;;;19.76;49.96
25638;BME280;13496;51.040;13.680;2024-03-02T19:35:06;98811.91;;;19.76;50.21
25638;BME280;13496;51.040;13.680;2024-03-02T19:40:09;98814.53;;;19.76;49.85
25638;BME280;13496;51.040;13.680;2024-03-02T19:45:13;98806.66;;;19.76;49.99
25638;BME280;13496;51.040;13.680;2024-03-02T19:50:15;98799.19;;;19.73;50.22
25638;BME280;13496;51.040;13.680;2024-03-02T19:55:19;98794.91;;;19.72;50.03
25638;BME280;13496;51.040;13.680;2024-03-02T20:00:22;98792.53;;;19.71;50.30
25638;BME280;13496;51.040;13.680;2024-03-02T20:05:23;98790.69;;;19.71;50.52
25638;BME280;13496;51.040;13.680;2024-03-02T20:10:26;98788.28;;;19.70;50.24
25638;BME280;13496;51.040;13.680;2024-03-02T20:15:27;98778.56;;;19.70;50.43
25638;BME280;13496;51.040;13.680;2024-03-02T20:20:29;98784.84;;;19.69;50.34
25638;BME280;13496;51.040;13.680;2024-03-02T20:25:31;98767.00;;;19.71;50.14
25638;BME280;13496;51.040;13.680;2024-03-02T20:30:33;98766.44;;;19.69;50.28
25638;BME280;13496;51.040;13.680;2024-03-02T20:35:34;98760.13;;;19.70;50.33
25638;BME280;13496;51.040;13.680;2024-03-02T20:40:36;98760.13;;;19.70;50.33
25638;BME280;13496;51.040;13.680;2024-03-02T20:45:38;98755.06;;;19.69;50.19
25638;BME280;13496;51.040;13.680;2024-03-02T20:50:40;98754.06;;;19.70;50.58
25638;BME280;13496;51.040;13.680;2024-03-02T20:55:42;98753.28;;;19.69;50.58
25638;BME280;13496;51.040;13.680;2024-03-02T21:00:44;98746.38;;;19.68;50.49
25638;BME280;13496;51.040;13.680;2024-03-02T21:05:46;98743.19;;;19.66;50.44
25638;BME280;13496;51.040;13.680;2024-03-02T21:10:48;98744.78;;;19.67;50.52
25638;BME280;13496;51.040;13.680;2024-03-02T21:15:50;98745.59;;;19.68;50.27
25638;BME280;13496;51.040;13.680;2024-03-02T21:20:52;98752.44;;;19.69;50.49
25638;BME280;13496;51.040;13.680;2024-03-02T21:25:53;98744.78;;;19.67;50.52
25638;BME280;13496;51.040;13.680;2024-03-02T21:30:55;98738.91;;;19.65;50.47
25638;BME280;13496;51.040;13.680;2024-03-02T21:35:57;98739.75;;;19.66;50.63
25638;BME280;13496;51.040;13.680;2024-03-02T21:40:59;98747.41;;;19.67;50.51
25638;BME280;13496;51.040;13.680;2024-03-02T21:46:01;98744.78;;;19.67;50.18
25638;BME280;13496;51.040;13.680;2024-03-02T21:51:03;98749.25;;;19.67;50.47
25638;BME280;13496;51.040;13.680;2024-03-02T21:56:05;98739.09;;;19.70;50.64
25638;BME280;13496;51.040;13.680;2024-03-02T22:01:07;98736.88;;;19.67;50.52
25638;BME280;13496;51.040;13.680;2024-03-02T22:06:09;98728.19;;;19.67;50.36
25638;BME280;13496;51.040;13.680;2024-03-02T22:11:11;98724.75;;;19.66;50.41
25638;BME280;13496;51.040;13.680;2024-03-02T22:16:13;98723.72;;;19.67;50.50
25638;BME280;13496;51.040;13.680;2024-03-02T22:21:15;98721.91;;;19.68;50.51
25638;BME280;13496;51.040;13.680;2024-03-02T22:26:17;98724.16;;;19.64;50.66
25638;BME280;13496;51.040;13.680;2024-03-02T22:31:20;98724.53;;;19.68;50.23
25638;BME280;13496;51.040;13.680;2024-03-02T22:36:22;98724.31;;;19.69;50.53
25638;BME280;13496;51.040;13.680;2024-03-02T22:41:24;98715.59;;;19.69;50.15
25638;BME280;13496;51.040;13.680;2024-03-02T22:46:26;98716.06;;;19.66;50.65
25638;BME280;13496;51.040;13.680;2024-03-02T22:51:28;98716.88;;;19.66;50.32
25638;BME280;13496;51.040;13.680;2024-03-02T22:56:29;98718.47;;;19.67;50.54
25638;BME280;13496;51.040;13.680;2024-03-02T23:01:31;98709.78;;;19.67;50.46
25638;BME280;13496;51.040;13.680;2024-03-02T23:06:33;98711.59;;;19.66;50.38
25638;BME280;13496;51.040;13.680;2024-03-02T23:11:35;98712.59;;;19.65;50.33
25638;BME280;13496;51.040;13.680;2024-03-02T23:16:37;98714.66;;;19.63;50.17
25638;BME280;13496;51.040;13.680;2024-03-02T23:21:46;98708.38;;;19.64;50.19
25638;BME280;13496;51.040;13.680;2024-03-02T23:26:47;98712.03;;;19.63;50.55
25638;BME280;13496;51.040;13.680;2024-03-02T23:31:50;98698.88;;;19.63;50.48
25638;BME280;13496;51.040;13.680;2024-03-02T23:36:52;98695.44;;;19.63;50.34
25638;BME280;13496;51.040;13.680;2024-03-02T23:41:54;98684.13;;;19.62;50.36
25638;BME280;13496;51.040;13.680;2024-03-02T23:46:55;98677.22;;;19.61;50.25
25638;BME280;13496;51.040;13.680;2024-03-02T23:51:57;98669.53;;;19.59;50.40
25638;BME280;13496;51.040;13.680;2024-03-02T23:56:59;98675.59;;;19.60;50.39
